Portada
METAR-TAF:

METAR-TAF

Aeroports :

Amman, Jordània

latitud: 31-59N, longitud: 035-59E, altitud: 767 m

Observació

L'informe es va fer fa 31 minuts, a les 10:00 UTC
Vent 10 kt del Nord-Oest
Temperatura 34°C
Humitat 23%
Pressió 1012 hPa
Visibilitat: 6000 m

METAR: OJAM 241000Z 31010KT 6000 NSC 34/10 Q1012 NOSIG

Hora: 13:31 (10:31 UTC)

Pronòstic

L'informe es va fer fa 6 hores i 10 minuts, a les 04:21 UTC
Pronòstic vàlid del 24 a les 06 UTC al 25 a les 12 UTC
Vent 10 kt del Oest
Visibilitat: 5000 m
calitja

TAF: OJAM 240421Z 2406/2512 28010KT 5000 HZ NSC

Observacions i pronòstics meteorològics de més de 4000 aeroports (METAR i TAF).

Les estacions disponibles són els punts grocs i vermells al mapa.

Posi el ratolí al punt desitjat per veure el nom de l'estació.

Feu clic per veure les observacions i els pronòstics meteorològics.

Per canviar el mapa: feu clic els botons verds amb una creu de color negre per apropar; al botó verd amb un guió per allunyar la imatge; o en les fletxes verdes per a mapes adjacents.


METAR-TAF: